sensor_id;sensor_type;location;lat;lon;timestamp;P1;durP1;ratioP1;P2;durP2;ratioP2
15082;SDS011;7640;53.116;6.878;2022-12-07T00:01:45;14.93;;;5.57;;
15082;SDS011;7640;53.116;6.878;2022-12-07T00:04:15;13.57;;;5.20;;
15082;SDS011;7640;53.116;6.878;2022-12-07T00:06:45;11.07;;;4.47;;
15082;SDS011;7640;53.116;6.878;2022-12-07T00:09:18;11.50;;;5.40;;
15082;SDS011;7640;53.116;6.878;2022-12-07T00:11:49;16.87;;;5.53;;
15082;SDS011;7640;53.116;6.878;2022-12-07T00:14:18;11.63;;;4.90;;
15082;SDS011;7640;53.116;6.878;2022-12-07T00:16:48;13.00;;;3.80;;
15082;SDS011;7640;53.116;6.878;2022-12-07T00:19:18;14.33;;;3.40;;
15082;SDS011;7640;53.116;6.878;2022-12-07T00:21:46;10.27;;;3.30;;
15082;SDS011;7640;53.116;6.878;2022-12-07T00:24:15;11.17;;;3.00;;
15082;SDS011;7640;53.116;6.878;2022-12-07T00:26:43;15.10;;;3.43;;
15082;SDS011;7640;53.116;6.878;2022-12-07T00:29:14;11.67;;;3.03;;
15082;SDS011;7640;53.116;6.878;2022-12-07T00:31:45;9.00;;;3.20;;
15082;SDS011;7640;53.116;6.878;2022-12-07T00:34:16;14.10;;;4.63;;
15082;SDS011;7640;53.116;6.878;2022-12-07T00:36:46;11.47;;;3.50;;
15082;SDS011;7640;53.116;6.878;2022-12-07T00:39:15;12.93;;;3.70;;
15082;SDS011;7640;53.116;6.878;2022-12-07T00:41:44;12.67;;;3.60;;
15082;SDS011;7640;53.116;6.878;2022-12-07T00:44:13;8.77;;;3.00;;
15082;SDS011;7640;53.116;6.878;2022-12-07T00:46:42;10.90;;;3.00;;
15082;SDS011;7640;53.116;6.878;2022-12-07T00:49:11;8.77;;;3.37;;
15082;SDS011;7640;53.116;6.878;2022-12-07T00:51:39;7.60;;;2.57;;
15082;SDS011;7640;53.116;6.878;2022-12-07T00:54:08;12.40;;;2.60;;
15082;SDS011;7640;53.116;6.878;2022-12-07T00:56:36;11.40;;;2.40;;
15082;SDS011;7640;53.116;6.878;2022-12-07T00:59:04;8.57;;;2.63;;
15082;SDS011;7640;53.116;6.878;2022-12-07T01:01:35;8.97;;;2.17;;
15082;SDS011;7640;53.116;6.878;2022-12-07T01:04:04;8.03;;;2.50;;
15082;SDS011;7640;53.116;6.878;2022-12-07T01:06:33;12.07;;;3.40;;
15082;SDS011;7640;53.116;6.878;2022-12-07T01:09:02;11.80;;;2.10;;
15082;SDS011;7640;53.116;6.878;2022-12-07T01:11:32;12.27;;;1.87;;
15082;SDS011;7640;53.116;6.878;2022-12-07T01:14:00;14.30;;;2.30;;
15082;SDS011;7640;53.116;6.878;2022-12-07T01:16:29;11.57;;;2.07;;
15082;SDS011;7640;53.116;6.878;2022-12-07T01:19:01;8.40;;;2.17;;
15082;SDS011;7640;53.116;6.878;2022-12-07T01:21:32;9.47;;;2.37;;
15082;SDS011;7640;53.116;6.878;2022-12-07T01:24:04;9.73;;;2.77;;
15082;SDS011;7640;53.116;6.878;2022-12-07T01:26:36;11.20;;;1.80;;
15082;SDS011;7640;53.116;6.878;2022-12-07T01:29:04;14.77;;;2.47;;
15082;SDS011;7640;53.116;6.878;2022-12-07T01:31:33;12.93;;;2.13;;
15082;SDS011;7640;53.116;6.878;2022-12-07T01:34:02;7.13;;;1.90;;
15082;SDS011;7640;53.116;6.878;2022-12-07T01:36:31;13.33;;;1.90;;
15082;SDS011;7640;53.116;6.878;2022-12-07T01:39:03;8.00;;;2.33;;
15082;SDS011;7640;53.116;6.878;2022-12-07T01:41:34;9.90;;;2.13;;
15082;SDS011;7640;53.116;6.878;2022-12-07T01:44:16;8.33;;;2.50;;
15082;SDS011;7640;53.116;6.878;2022-12-07T01:46:49;11.23;;;2.80;;
15082;SDS011;7640;53.116;6.878;2022-12-07T01:49:27;10.17;;;2.70;;
15082;SDS011;7640;53.116;6.878;2022-12-07T01:52:03;9.87;;;2.03;;
15082;SDS011;7640;53.116;6.878;2022-12-07T01:54:44;7.53;;;2.07;;
15082;SDS011;7640;53.116;6.878;2022-12-07T01:57:15;7.90;;;2.20;;
15082;SDS011;7640;53.116;6.878;2022-12-07T01:59:44;7.40;;;2.20;;
15082;SDS011;7640;53.116;6.878;2022-12-07T02:02:17;10.90;;;2.37;;
15082;SDS011;7640;53.116;6.878;2022-12-07T02:04:49;6.03;;;2.27;;
15082;SDS011;7640;53.116;6.878;2022-12-07T02:07:20;8.03;;;2.10;;
15082;SDS011;7640;53.116;6.878;2022-12-07T02:09:49;7.23;;;1.90;;
15082;SDS011;7640;53.116;6.878;2022-12-07T02:12:17;10.93;;;1.73;;
15082;SDS011;7640;53.116;6.878;2022-12-07T02:14:46;7.90;;;1.70;;
15082;SDS011;7640;53.116;6.878;2022-12-07T02:17:16;7.97;;;1.50;;
15082;SDS011;7640;53.116;6.878;2022-12-07T02:20:15;6.00;;;1.33;;
15082;SDS011;7640;53.116;6.878;2022-12-07T02:29:30;10.70;;;3.37;;
15082;SDS011;7640;53.116;6.878;2022-12-07T02:32:04;7.13;;;1.77;;
15082;SDS011;7640;53.116;6.878;2022-12-07T02:34:42;9.17;;;1.87;;
15082;SDS011;7640;53.116;6.878;2022-12-07T02:37:21;13.53;;;4.80;;
15082;SDS011;7640;53.116;6.878;2022-12-07T02:40:04;12.23;;;2.57;;
15082;SDS011;7640;53.116;6.878;2022-12-07T02:42:40;8.70;;;2.17;;
15082;SDS011;7640;53.116;6.878;2022-12-07T02:45:15;4.87;;;1.30;;
15082;SDS011;7640;53.116;6.878;2022-12-07T02:47:48;9.33;;;1.60;;
15082;SDS011;7640;53.116;6.878;2022-12-07T02:50:20;5.93;;;1.50;;
15082;SDS011;7640;53.116;6.878;2022-12-07T02:52:49;5.23;;;1.27;;
15082;SDS011;7640;53.116;6.878;2022-12-07T02:55:18;3.67;;;1.37;;
15082;SDS011;7640;53.116;6.878;2022-12-07T02:57:59;5.83;;;1.40;;
15082;SDS011;7640;53.116;6.878;2022-12-07T03:00:54;9.37;;;1.60;;
15082;SDS011;7640;53.116;6.878;2022-12-07T03:03:33;7.00;;;1.30;;
15082;SDS011;7640;53.116;6.878;2022-12-07T03:06:09;7.67;;;1.80;;
15082;SDS011;7640;53.116;6.878;2022-12-07T03:08:47;5.37;;;1.57;;
15082;SDS011;7640;53.116;6.878;2022-12-07T03:11:24;9.63;;;1.60;;
15082;SDS011;7640;53.116;6.878;2022-12-07T03:13:59;8.80;;;2.00;;
15082;SDS011;7640;53.116;6.878;2022-12-07T03:16:35;6.30;;;1.63;;
15082;SDS011;7640;53.116;6.878;2022-12-07T03:19:10;10.17;;;1.63;;
15082;SDS011;7640;53.116;6.878;2022-12-07T03:21:44;5.00;;;1.47;;
15082;SDS011;7640;53.116;6.878;2022-12-07T03:24:20;7.40;;;2.00;;
15082;SDS011;7640;53.116;6.878;2022-12-07T03:26:52;6.70;;;1.80;;
15082;SDS011;7640;53.116;6.878;2022-12-07T03:29:27;8.70;;;1.77;;
15082;SDS011;7640;53.116;6.878;2022-12-07T03:32:04;7.20;;;1.83;;
15082;SDS011;7640;53.116;6.878;2022-12-07T03:34:36;9.77;;;3.10;;
15082;SDS011;7640;53.116;6.878;2022-12-07T03:37:10;5.53;;;1.70;;
15082;SDS011;7640;53.116;6.878;2022-12-07T03:39:45;8.50;;;1.53;;
15082;SDS011;7640;53.116;6.878;2022-12-07T03:42:23;6.30;;;1.60;;
15082;SDS011;7640;53.116;6.878;2022-12-07T03:44:52;9.80;;;2.27;;
15082;SDS011;7640;53.116;6.878;2022-12-07T03:47:23;8.33;;;1.90;;
15082;SDS011;7640;53.116;6.878;2022-12-07T03:49:58;12.33;;;2.43;;
15082;SDS011;7640;53.116;6.878;2022-12-07T03:52:31;6.37;;;2.00;;
15082;SDS011;7640;53.116;6.878;2022-12-07T03:55:05;6.00;;;1.80;;
15082;SDS011;7640;53.116;6.878;2022-12-07T03:57:38;8.77;;;2.23;;
15082;SDS011;7640;53.116;6.878;2022-12-07T04:00:10;9.17;;;2.43;;
15082;SDS011;7640;53.116;6.878;2022-12-07T04:02:41;14.47;;;3.10;;
15082;SDS011;7640;53.116;6.878;2022-12-07T04:05:10;12.37;;;3.80;;
15082;SDS011;7640;53.116;6.878;2022-12-07T04:07:38;13.33;;;3.30;;
15082;SDS011;7640;53.116;6.878;2022-12-07T04:10:09;12.67;;;2.77;;
15082;SDS011;7640;53.116;6.878;2022-12-07T04:12:38;6.53;;;1.93;;
15082;SDS011;7640;53.116;6.878;2022-12-07T04:15:07;8.47;;;1.93;;
15082;SDS011;7640;53.116;6.878;2022-12-07T04:17:36;10.70;;;1.77;;
15082;SDS011;7640;53.116;6.878;2022-12-07T04:20:07;6.67;;;1.30;;
15082;SDS011;7640;53.116;6.878;2022-12-07T04:22:36;6.87;;;1.70;;
15082;SDS011;7640;53.116;6.878;2022-12-07T04:25:05;6.87;;;1.30;;
15082;SDS011;7640;53.116;6.878;2022-12-07T04:27:34;7.67;;;1.43;;
15082;SDS011;7640;53.116;6.878;2022-12-07T04:30:02;7.37;;;1.90;;
15082;SDS011;7640;53.116;6.878;2022-12-07T04:32:32;4.90;;;1.00;;
15082;SDS011;7640;53.116;6.878;2022-12-07T04:35:00;5.17;;;1.07;;
15082;SDS011;7640;53.116;6.878;2022-12-07T04:37:30;5.53;;;1.43;;
15082;SDS011;7640;53.116;6.878;2022-12-07T04:39:58;8.57;;;1.57;;
15082;SDS011;7640;53.116;6.878;2022-12-07T04:42:27;8.60;;;1.67;;
15082;SDS011;7640;53.116;6.878;2022-12-07T04:44:55;10.90;;;1.73;;
15082;SDS011;7640;53.116;6.878;2022-12-07T04:47:23;6.27;;;1.60;;
15082;SDS011;7640;53.116;6.878;2022-12-07T04:49:51;5.57;;;1.40;;
15082;SDS011;7640;53.116;6.878;2022-12-07T04:52:20;5.70;;;1.43;;
15082;SDS011;7640;53.116;6.878;2022-12-07T04:54:50;10.20;;;1.50;;
15082;SDS011;7640;53.116;6.878;2022-12-07T04:57:18;13.23;;;1.63;;
15082;SDS011;7640;53.116;6.878;2022-12-07T04:59:46;9.67;;;1.47;;
15082;SDS011;7640;53.116;6.878;2022-12-07T05:02:14;5.70;;;1.70;;
15082;SDS011;7640;53.116;6.878;2022-12-07T05:04:43;4.80;;;1.63;;
15082;SDS011;7640;53.116;6.878;2022-12-07T05:07:11;6.47;;;1.37;;
15082;SDS011;7640;53.116;6.878;2022-12-07T05:09:39;6.03;;;1.30;;
15082;SDS011;7640;53.116;6.878;2022-12-07T05:12:09;7.57;;;1.97;;
15082;SDS011;7640;53.116;6.878;2022-12-07T05:14:37;10.10;;;1.70;;
15082;SDS011;7640;53.116;6.878;2022-12-07T05:17:05;4.83;;;1.23;;
15082;SDS011;7640;53.116;6.878;2022-12-07T05:19:33;4.60;;;1.50;;
15082;SDS011;7640;53.116;6.878;2022-12-07T05:22:02;5.17;;;1.00;;
15082;SDS011;7640;53.116;6.878;2022-12-07T05:24:30;3.70;;;1.30;;
15082;SDS011;7640;53.116;6.878;2022-12-07T05:26:58;6.90;;;1.33;;
15082;SDS011;7640;53.116;6.878;2022-12-07T05:29:28;6.07;;;1.73;;
15082;SDS011;7640;53.116;6.878;2022-12-07T05:31:56;6.87;;;1.43;;
15082;SDS011;7640;53.116;6.878;2022-12-07T05:34:24;7.73;;;1.07;;
15082;SDS011;7640;53.116;6.878;2022-12-07T05:36:53;4.93;;;1.20;;
15082;SDS011;7640;53.116;6.878;2022-12-07T05:39:21;7.97;;;1.20;;
15082;SDS011;7640;53.116;6.878;2022-12-07T05:41:49;5.90;;;1.40;;
15082;SDS011;7640;53.116;6.878;2022-12-07T05:44:36;6.60;;;1.50;;
15082;SDS011;7640;53.116;6.878;2022-12-07T05:47:05;4.80;;;1.40;;
15082;SDS011;7640;53.116;6.878;2022-12-07T05:49:33;6.93;;;1.30;;
15082;SDS011;7640;53.116;6.878;2022-12-07T05:52:02;8.40;;;1.40;;
15082;SDS011;7640;53.116;6.878;2022-12-07T05:54:31;5.73;;;1.70;;
15082;SDS011;7640;53.116;6.878;2022-12-07T05:57:00;5.27;;;1.20;;
15082;SDS011;7640;53.116;6.878;2022-12-07T05:59:28;6.87;;;1.40;;
15082;SDS011;7640;53.116;6.878;2022-12-07T06:01:57;7.20;;;1.23;;
15082;SDS011;7640;53.116;6.878;2022-12-07T06:04:28;9.27;;;1.20;;
15082;SDS011;7640;53.116;6.878;2022-12-07T06:07:00;5.13;;;1.40;;
15082;SDS011;7640;53.116;6.878;2022-12-07T06:09:29;5.30;;;1.50;;
15082;SDS011;7640;53.116;6.878;2022-12-07T06:11:58;7.67;;;1.77;;
15082;SDS011;7640;53.116;6.878;2022-12-07T06:14:44;5.67;;;2.17;;
15082;SDS011;7640;53.116;6.878;2022-12-07T06:17:13;5.53;;;1.43;;
15082;SDS011;7640;53.116;6.878;2022-12-07T06:19:43;6.97;;;1.67;;
15082;SDS011;7640;53.116;6.878;2022-12-07T06:22:11;7.37;;;1.80;;
15082;SDS011;7640;53.116;6.878;2022-12-07T06:24:42;9.07;;;2.13;;
15082;SDS011;7640;53.116;6.878;2022-12-07T06:27:10;12.20;;;2.03;;
15082;SDS011;7640;53.116;6.878;2022-12-07T06:29:39;7.90;;;1.57;;
15082;SDS011;7640;53.116;6.878;2022-12-07T06:32:07;10.97;;;2.10;;
15082;SDS011;7640;53.116;6.878;2022-12-07T06:34:37;7.90;;;3.60;;
15082;SDS011;7640;53.116;6.878;2022-12-07T06:37:05;6.90;;;1.60;;
15082;SDS011;7640;53.116;6.878;2022-12-07T06:39:34;11.37;;;2.20;;
15082;SDS011;7640;53.116;6.878;2022-12-07T06:42:02;5.87;;;1.83;;
15082;SDS011;7640;53.116;6.878;2022-12-07T06:44:31;9.03;;;2.23;;
15082;SDS011;7640;53.116;6.878;2022-12-07T06:46:59;8.00;;;2.00;;
15082;SDS011;7640;53.116;6.878;2022-12-07T06:49:49;12.83;;;2.10;;
15082;SDS011;7640;53.116;6.878;2022-12-07T06:52:17;7.53;;;1.70;;
15082;SDS011;7640;53.116;6.878;2022-12-07T06:54:46;5.87;;;2.10;;
15082;SDS011;7640;53.116;6.878;2022-12-07T06:57:14;9.77;;;1.87;;
15082;SDS011;7640;53.116;6.878;2022-12-07T06:59:42;10.97;;;2.40;;
15082;SDS011;7640;53.116;6.878;2022-12-07T07:02:11;7.27;;;2.07;;
15082;SDS011;7640;53.116;6.878;2022-12-07T07:04:39;8.33;;;2.00;;
15082;SDS011;7640;53.116;6.878;2022-12-07T07:07:09;5.43;;;1.90;;
15082;SDS011;7640;53.116;6.878;2022-12-07T07:09:37;8.70;;;2.70;;
15082;SDS011;7640;53.116;6.878;2022-12-07T07:12:05;9.83;;;2.47;;
15082;SDS011;7640;53.116;6.878;2022-12-07T07:14:33;9.37;;;2.70;;
15082;SDS011;7640;53.116;6.878;2022-12-07T07:17:02;12.10;;;2.67;;
15082;SDS011;7640;53.116;6.878;2022-12-07T07:19:30;6.83;;;2.47;;
15082;SDS011;7640;53.116;6.878;2022-12-07T07:21:59;9.60;;;2.60;;
15082;SDS011;7640;53.116;6.878;2022-12-07T07:24:28;12.13;;;2.60;;
15082;SDS011;7640;53.116;6.878;2022-12-07T07:26:57;7.23;;;2.27;;
15082;SDS011;7640;53.116;6.878;2022-12-07T07:29:25;7.27;;;2.30;;
15082;SDS011;7640;53.116;6.878;2022-12-07T07:31:53;7.03;;;2.10;;
15082;SDS011;7640;53.116;6.878;2022-12-07T07:34:27;6.57;;;1.60;;
15082;SDS011;7640;53.116;6.878;2022-12-07T07:36:55;10.50;;;2.03;;
15082;SDS011;7640;53.116;6.878;2022-12-07T07:39:23;5.30;;;1.73;;
15082;SDS011;7640;53.116;6.878;2022-12-07T07:41:53;5.43;;;1.60;;
15082;SDS011;7640;53.116;6.878;2022-12-07T07:44:21;4.90;;;1.63;;
15082;SDS011;7640;53.116;6.878;2022-12-07T07:46:49;2.47;;;1.43;;
15082;SDS011;7640;53.116;6.878;2022-12-07T07:49:17;5.10;;;1.90;;
15082;SDS011;7640;53.116;6.878;2022-12-07T07:51:46;2.77;;;1.80;;
15082;SDS011;7640;53.116;6.878;2022-12-07T07:54:15;7.13;;;1.90;;
15082;SDS011;7640;53.116;6.878;2022-12-07T07:56:43;6.67;;;1.40;;
15082;SDS011;7640;53.116;6.878;2022-12-07T07:59:13;4.17;;;1.30;;
15082;SDS011;7640;53.116;6.878;2022-12-07T08:01:42;7.77;;;2.27;;
15082;SDS011;7640;53.116;6.878;2022-12-07T08:04:10;3.73;;;1.60;;
15082;SDS011;7640;53.116;6.878;2022-12-07T08:06:38;6.17;;;2.63;;
15082;SDS011;7640;53.116;6.878;2022-12-07T08:09:08;8.97;;;2.00;;
15082;SDS011;7640;53.116;6.878;2022-12-07T08:11:37;5.60;;;2.63;;
15082;SDS011;7640;53.116;6.878;2022-12-07T08:14:05;5.33;;;2.00;;
15082;SDS011;7640;53.116;6.878;2022-12-07T08:16:35;7.27;;;2.40;;
15082;SDS011;7640;53.116;6.878;2022-12-07T08:19:04;8.40;;;2.80;;
15082;SDS011;7640;53.116;6.878;2022-12-07T08:21:32;5.97;;;2.20;;
15082;SDS011;7640;53.116;6.878;2022-12-07T08:24:01;4.50;;;2.23;;
15082;SDS011;7640;53.116;6.878;2022-12-07T08:26:29;7.50;;;2.67;;
15082;SDS011;7640;53.116;6.878;2022-12-07T08:28:58;8.93;;;3.67;;
15082;SDS011;7640;53.116;6.878;2022-12-07T08:31:26;13.27;;;5.67;;
15082;SDS011;7640;53.116;6.878;2022-12-07T08:33:56;8.97;;;2.43;;
15082;SDS011;7640;53.116;6.878;2022-12-07T08:36:25;5.77;;;2.23;;
15082;SDS011;7640;53.116;6.878;2022-12-07T08:38:53;6.30;;;1.90;;
15082;SDS011;7640;53.116;6.878;2022-12-07T08:41:41;4.83;;;1.73;;
15082;SDS011;7640;53.116;6.878;2022-12-07T08:44:10;8.03;;;2.30;;
15082;SDS011;7640;53.116;6.878;2022-12-07T08:46:38;10.03;;;1.97;;
15082;SDS011;7640;53.116;6.878;2022-12-07T08:49:13;5.07;;;1.70;;
15082;SDS011;7640;53.116;6.878;2022-12-07T08:51:45;7.60;;;2.73;;
15082;SDS011;7640;53.116;6.878;2022-12-07T08:54:15;6.77;;;1.97;;
15082;SDS011;7640;53.116;6.878;2022-12-07T08:56:45;6.97;;;1.60;;
15082;SDS011;7640;53.116;6.878;2022-12-07T08:59:22;9.80;;;2.87;;
15082;SDS011;7640;53.116;6.878;2022-12-07T09:01:50;9.57;;;2.73;;
15082;SDS011;7640;53.116;6.878;2022-12-07T09:04:20;7.10;;;2.30;;
15082;SDS011;7640;53.116;6.878;2022-12-07T09:06:48;12.67;;;2.40;;
15082;SDS011;7640;53.116;6.878;2022-12-07T09:09:17;8.90;;;2.33;;
15082;SDS011;7640;53.116;6.878;2022-12-07T09:11:45;10.07;;;2.77;;
15082;SDS011;7640;53.116;6.878;2022-12-07T09:14:14;7.20;;;2.87;;
15082;SDS011;7640;53.116;6.878;2022-12-07T09:16:43;11.00;;;3.30;;
15082;SDS011;7640;53.116;6.878;2022-12-07T09:19:11;5.80;;;2.30;;
15082;SDS011;7640;53.116;6.878;2022-12-07T09:21:41;6.10;;;1.90;;
15082;SDS011;7640;53.116;6.878;2022-12-07T09:24:09;6.87;;;2.13;;
15082;SDS011;7640;53.116;6.878;2022-12-07T09:26:39;9.33;;;3.33;;
15082;SDS011;7640;53.116;6.878;2022-12-07T09:29:07;9.50;;;3.57;;
15082;SDS011;7640;53.116;6.878;2022-12-07T09:31:36;9.13;;;2.87;;
15082;SDS011;7640;53.116;6.878;2022-12-07T09:34:05;10.63;;;2.87;;
15082;SDS011;7640;53.116;6.878;2022-12-07T09:36:33;13.73;;;2.80;;
15082;SDS011;7640;53.116;6.878;2022-12-07T09:39:03;11.90;;;3.37;;
15082;SDS011;7640;53.116;6.878;2022-12-07T09:41:32;10.23;;;2.70;;
15082;SDS011;7640;53.116;6.878;2022-12-07T09:44:03;7.97;;;2.20;;
15082;SDS011;7640;53.116;6.878;2022-12-07T09:46:34;9.37;;;2.60;;
15082;SDS011;7640;53.116;6.878;2022-12-07T09:49:05;8.07;;;3.10;;
15082;SDS011;7640;53.116;6.878;2022-12-07T09:51:37;13.13;;;2.67;;
15082;SDS011;7640;53.116;6.878;2022-12-07T09:54:08;5.17;;;2.10;;
15082;SDS011;7640;53.116;6.878;2022-12-07T09:56:41;7.87;;;2.10;;
15082;SDS011;7640;53.116;6.878;2022-12-07T09:59:12;12.67;;;2.30;;
15082;SDS011;7640;53.116;6.878;2022-12-07T10:01:45;9.13;;;2.33;;
15082;SDS011;7640;53.116;6.878;2022-12-07T10:04:16;9.10;;;3.23;;
15082;SDS011;7640;53.116;6.878;2022-12-07T10:06:48;5.10;;;1.90;;
15082;SDS011;7640;53.116;6.878;2022-12-07T10:09:19;7.00;;;2.10;;
15082;SDS011;7640;53.116;6.878;2022-12-07T10:12:02;9.27;;;2.30;;
15082;SDS011;7640;53.116;6.878;2022-12-07T10:14:33;7.63;;;2.10;;
15082;SDS011;7640;53.116;6.878;2022-12-07T10:17:35;13.23;;;3.27;;
15082;SDS011;7640;53.116;6.878;2022-12-07T10:22:58;5.60;;;1.93;;
15082;SDS011;7640;53.116;6.878;2022-12-07T10:25:32;7.33;;;2.00;;
15082;SDS011;7640;53.116;6.878;2022-12-07T10:28:10;8.27;;;2.00;;
15082;SDS011;7640;53.116;6.878;2022-12-07T10:30:51;9.47;;;2.80;;
15082;SDS011;7640;53.116;6.878;2022-12-07T10:33:32;7.73;;;2.83;;
15082;SDS011;7640;53.116;6.878;2022-12-07T10:36:16;7.77;;;2.20;;
15082;SDS011;7640;53.116;6.878;2022-12-07T10:38:48;11.17;;;2.40;;
15082;SDS011;7640;53.116;6.878;2022-12-07T10:41:20;13.03;;;2.73;;
15082;SDS011;7640;53.116;6.878;2022-12-07T10:43:52;8.03;;;2.43;;
15082;SDS011;7640;53.116;6.878;2022-12-07T10:46:28;6.77;;;1.80;;
15082;SDS011;7640;53.116;6.878;2022-12-07T10:49:37;10.30;;;2.30;;
15082;SDS011;7640;53.116;6.878;2022-12-07T10:52:32;6.20;;;2.27;;
15082;SDS011;7640;53.116;6.878;2022-12-07T10:55:40;11.00;;;2.47;;
15082;SDS011;7640;53.116;6.878;2022-12-07T10:58:30;7.93;;;2.30;;
15082;SDS011;7640;53.116;6.878;2022-12-07T11:01:16;12.07;;;2.83;;
15082;SDS011;7640;53.116;6.878;2022-12-07T11:03:59;13.67;;;2.30;;
15082;SDS011;7640;53.116;6.878;2022-12-07T11:06:44;7.47;;;2.30;;
15082;SDS011;7640;53.116;6.878;2022-12-07T11:09:27;8.40;;;2.80;;
15082;SDS011;7640;53.116;6.878;2022-12-07T11:12:36;9.70;;;2.50;;
15082;SDS011;7640;53.116;6.878;2022-12-07T11:15:28;8.67;;;2.43;;
15082;SDS011;7640;53.116;6.878;2022-12-07T11:18:11;9.57;;;2.23;;
15082;SDS011;7640;53.116;6.878;2022-12-07T11:20:50;8.07;;;2.23;;
15082;SDS011;7640;53.116;6.878;2022-12-07T11:23:27;6.17;;;1.83;;
15082;SDS011;7640;53.116;6.878;2022-12-07T11:26:09;12.43;;;2.43;;
15082;SDS011;7640;53.116;6.878;2022-12-07T11:28:55;11.47;;;2.70;;
15082;SDS011;7640;53.116;6.878;2022-12-07T11:31:52;10.20;;;2.83;;
15082;SDS011;7640;53.116;6.878;2022-12-07T11:34:36;7.07;;;2.83;;
15082;SDS011;7640;53.116;6.878;2022-12-07T11:37:13;8.83;;;3.20;;
15082;SDS011;7640;53.116;6.878;2022-12-07T11:39:46;7.40;;;2.30;;
15082;SDS011;7640;53.116;6.878;2022-12-07T11:42:20;5.53;;;1.90;;
15082;SDS011;7640;53.116;6.878;2022-12-07T11:44:52;3.87;;;1.67;;
15082;SDS011;7640;53.116;6.878;2022-12-07T11:47:27;5.93;;;2.10;;
15082;SDS011;7640;53.116;6.878;2022-12-07T11:50:05;7.50;;;1.60;;
15082;SDS011;7640;53.116;6.878;2022-12-07T11:52:51;8.60;;;2.20;;
15082;SDS011;7640;53.116;6.878;2022-12-07T11:55:24;6.03;;;2.57;;
15082;SDS011;7640;53.116;6.878;2022-12-07T11:58:01;5.37;;;1.90;;
15082;SDS011;7640;53.116;6.878;2022-12-07T12:00:35;4.63;;;1.60;;
15082;SDS011;7640;53.116;6.878;2022-12-07T12:03:08;3.03;;;1.47;;
15082;SDS011;7640;53.116;6.878;2022-12-07T12:05:43;3.33;;;1.17;;
15082;SDS011;7640;53.116;6.878;2022-12-07T12:08:13;3.87;;;1.00;;
15082;SDS011;7640;53.116;6.878;2022-12-07T12:11:11;4.03;;;1.20;;
15082;SDS011;7640;53.116;6.878;2022-12-07T12:14:05;2.60;;;1.53;;
15082;SDS011;7640;53.116;6.878;2022-12-07T12:20:17;2.10;;;0.93;;
15082;SDS011;7640;53.116;6.878;2022-12-07T12:22:52;3.53;;;0.97;;
15082;SDS011;7640;53.116;6.878;2022-12-07T12:25:24;1.63;;;1.00;;
15082;SDS011;7640;53.116;6.878;2022-12-07T12:27:57;1.77;;;1.03;;
15082;SDS011;7640;53.116;6.878;2022-12-07T12:30:30;2.93;;;1.10;;
15082;SDS011;7640;53.116;6.878;2022-12-07T12:33:03;5.00;;;1.23;;
15082;SDS011;7640;53.116;6.878;2022-12-07T12:35:42;3.93;;;1.53;;
15082;SDS011;7640;53.116;6.878;2022-12-07T12:38:25;4.93;;;1.83;;
15082;SDS011;7640;53.116;6.878;2022-12-07T12:41:00;4.77;;;1.20;;
15082;SDS011;7640;53.116;6.878;2022-12-07T12:46:37;3.50;;;1.30;;
15082;SDS011;7640;53.116;6.878;2022-12-07T12:58:48;3.57;;;1.07;;
15082;SDS011;7640;53.116;6.878;2022-12-07T13:01:38;4.07;;;0.97;;
15082;SDS011;7640;53.116;6.878;2022-12-07T13:10:34;5.50;;;1.17;;
15082;SDS011;7640;53.116;6.878;2022-12-07T13:25:33;5.80;;;2.17;;
15082;SDS011;7640;53.116;6.878;2022-12-07T13:28:14;3.63;;;1.07;;
15082;SDS011;7640;53.116;6.878;2022-12-07T13:30:46;4.37;;;1.20;;
15082;SDS011;7640;53.116;6.878;2022-12-07T13:33:25;6.10;;;1.80;;
15082;SDS011;7640;53.116;6.878;2022-12-07T13:35:55;4.83;;;1.47;;
15082;SDS011;7640;53.116;6.878;2022-12-07T13:38:28;5.27;;;1.10;;
15082;SDS011;7640;53.116;6.878;2022-12-07T13:41:01;6.67;;;1.00;;
15082;SDS011;7640;53.116;6.878;2022-12-07T13:43:44;6.27;;;1.10;;
15082;SDS011;7640;53.116;6.878;2022-12-07T13:46:16;2.93;;;1.03;;
15082;SDS011;7640;53.116;6.878;2022-12-07T13:48:48;6.87;;;1.60;;
15082;SDS011;7640;53.116;6.878;2022-12-07T13:51:19;5.43;;;2.17;;
15082;SDS011;7640;53.116;6.878;2022-12-07T13:53:51;8.20;;;2.83;;
15082;SDS011;7640;53.116;6.878;2022-12-07T13:56:25;4.40;;;2.10;;
15082;SDS011;7640;53.116;6.878;2022-12-07T13:59:00;12.80;;;4.00;;
15082;SDS011;7640;53.116;6.878;2022-12-07T14:01:30;4.97;;;1.60;;
15082;SDS011;7640;53.116;6.878;2022-12-07T14:06:47;4.40;;;2.10;;
15082;SDS011;7640;53.116;6.878;2022-12-07T14:09:19;5.63;;;1.40;;
15082;SDS011;7640;53.116;6.878;2022-12-07T14:11:50;6.47;;;1.10;;
15082;SDS011;7640;53.116;6.878;2022-12-07T14:14:22;3.50;;;0.90;;
15082;SDS011;7640;53.116;6.878;2022-12-07T14:17:02;2.63;;;1.53;;
15082;SDS011;7640;53.116;6.878;2022-12-07T14:19:47;1.53;;;0.70;;
15082;SDS011;7640;53.116;6.878;2022-12-07T14:22:23;1.77;;;0.90;;
15082;SDS011;7640;53.116;6.878;2022-12-07T14:25:02;2.83;;;0.80;;
15082;SDS011;7640;53.116;6.878;2022-12-07T14:27:49;3.90;;;0.90;;
15082;SDS011;7640;53.116;6.878;2022-12-07T14:30:22;3.53;;;1.20;;
15082;SDS011;7640;53.116;6.878;2022-12-07T14:32:54;5.30;;;1.50;;
15082;SDS011;7640;53.116;6.878;2022-12-07T14:35:26;3.17;;;1.90;;
15082;SDS011;7640;53.116;6.878;2022-12-07T14:37:56;7.17;;;3.00;;
15082;SDS011;7640;53.116;6.878;2022-12-07T14:40:26;5.67;;;2.60;;
15082;SDS011;7640;53.116;6.878;2022-12-07T14:42:57;7.17;;;2.37;;
15082;SDS011;7640;53.116;6.878;2022-12-07T14:45:29;5.03;;;2.27;;
15082;SDS011;7640;53.116;6.878;2022-12-07T14:47:58;2.83;;;1.40;;
15082;SDS011;7640;53.116;6.878;2022-12-07T14:50:48;2.83;;;1.20;;
15082;SDS011;7640;53.116;6.878;2022-12-07T14:53:43;2.67;;;1.00;;
15082;SDS011;7640;53.116;6.878;2022-12-07T14:56:23;3.47;;;1.07;;
15082;SDS011;7640;53.116;6.878;2022-12-07T14:58:52;2.30;;;1.00;;
15082;SDS011;7640;53.116;6.878;2022-12-07T15:01:20;3.27;;;1.10;;
15082;SDS011;7640;53.116;6.878;2022-12-07T15:03:49;6.13;;;2.10;;
15082;SDS011;7640;53.116;6.878;2022-12-07T15:06:18;8.23;;;3.13;;
15082;SDS011;7640;53.116;6.878;2022-12-07T15:08:46;2.80;;;1.43;;
15082;SDS011;7640;53.116;6.878;2022-12-07T15:11:15;6.27;;;1.40;;
15082;SDS011;7640;53.116;6.878;2022-12-07T15:13:46;2.73;;;1.30;;
15082;SDS011;7640;53.116;6.878;2022-12-07T15:16:33;4.17;;;1.60;;
15082;SDS011;7640;53.116;6.878;2022-12-07T15:19:23;2.60;;;1.40;;
15082;SDS011;7640;53.116;6.878;2022-12-07T15:21:54;5.87;;;1.40;;
15082;SDS011;7640;53.116;6.878;2022-12-07T15:24:26;4.07;;;1.40;;
15082;SDS011;7640;53.116;6.878;2022-12-07T15:26:55;5.87;;;2.33;;
15082;SDS011;7640;53.116;6.878;2022-12-07T15:29:25;2.77;;;1.50;;
15082;SDS011;7640;53.116;6.878;2022-12-07T15:31:53;6.00;;;2.00;;
15082;SDS011;7640;53.116;6.878;2022-12-07T15:34:24;2.90;;;1.97;;
15082;SDS011;7640;53.116;6.878;2022-12-07T15:37:04;3.70;;;2.03;;
15082;SDS011;7640;53.116;6.878;2022-12-07T15:39:33;6.07;;;1.90;;
15082;SDS011;7640;53.116;6.878;2022-12-07T15:42:02;4.40;;;1.60;;
15082;SDS011;7640;53.116;6.878;2022-12-07T15:44:32;4.57;;;1.80;;
15082;SDS011;7640;53.116;6.878;2022-12-07T15:47:18;7.37;;;2.00;;
15082;SDS011;7640;53.116;6.878;2022-12-07T15:49:46;4.97;;;1.83;;
15082;SDS011;7640;53.116;6.878;2022-12-07T15:52:15;7.17;;;2.63;;
15082;SDS011;7640;53.116;6.878;2022-12-07T15:54:45;5.53;;;2.30;;
15082;SDS011;7640;53.116;6.878;2022-12-07T15:57:14;6.80;;;3.27;;
15082;SDS011;7640;53.116;6.878;2022-12-07T15:59:51;8.27;;;4.10;;
15082;SDS011;7640;53.116;6.878;2022-12-07T16:02:20;9.63;;;3.53;;
15082;SDS011;7640;53.116;6.878;2022-12-07T16:04:49;7.87;;;2.90;;
15082;SDS011;7640;53.116;6.878;2022-12-07T16:07:19;4.87;;;2.20;;
15082;SDS011;7640;53.116;6.878;2022-12-07T16:09:47;4.70;;;2.40;;
15082;SDS011;7640;53.116;6.878;2022-12-07T16:12:16;5.73;;;2.50;;
15082;SDS011;7640;53.116;6.878;2022-12-07T16:14:45;5.67;;;2.73;;
15082;SDS011;7640;53.116;6.878;2022-12-07T16:17:14;8.77;;;2.77;;
15082;SDS011;7640;53.116;6.878;2022-12-07T16:19:43;7.67;;;3.00;;